sensor_id;sensor_type;location;lat;lon;timestamp;temperature;humidity
11122;DHT22;5615;49.304;10.576;2023-05-29T00:00:59;14.00;81.90
11122;DHT22;5615;49.304;10.576;2023-05-29T00:03:26;14.00;80.60
11122;DHT22;5615;49.304;10.576;2023-05-29T00:05:54;13.90;81.20
11122;DHT22;5615;49.304;10.576;2023-05-29T00:08:21;13.90;82.00
11122;DHT22;5615;49.304;10.576;2023-05-29T00:10:47;13.90;83.00
11122;DHT22;5615;49.304;10.576;2023-05-29T00:13:14;13.80;84.40
11122;DHT22;5615;49.304;10.576;2023-05-29T00:15:40;13.70;85.70
11122;DHT22;5615;49.304;10.576;2023-05-29T00:18:07;13.70;87.20
11122;DHT22;5615;49.304;10.576;2023-05-29T00:20:34;13.70;88.20
11122;DHT22;5615;49.304;10.576;2023-05-29T00:23:02;13.60;89.30
11122;DHT22;5615;49.304;10.576;2023-05-29T00:25:31;13.60;90.20
11122;DHT22;5615;49.304;10.576;2023-05-29T00:27:58;13.30;91.00
11122;DHT22;5615;49.304;10.576;2023-05-29T00:30:24;13.20;92.20
11122;DHT22;5615;49.304;10.576;2023-05-29T00:32:51;13.10;92.60
11122;DHT22;5615;49.304;10.576;2023-05-29T00:35:19;13.10;93.70
11122;DHT22;5615;49.304;10.576;2023-05-29T00:37:46;13.10;94.30
11122;DHT22;5615;49.304;10.576;2023-05-29T00:40:14;13.10;94.40
11122;DHT22;5615;49.304;10.576;2023-05-29T00:42:41;13.10;94.80
11122;DHT22;5615;49.304;10.576;2023-05-29T00:45:08;13.00;95.30
11122;DHT22;5615;49.304;10.576;2023-05-29T00:47:35;13.00;96.80
11122;DHT22;5615;49.304;10.576;2023-05-29T00:50:02;12.90;96.60
11122;DHT22;5615;49.304;10.576;2023-05-29T00:52:29;12.90;97.30
11122;DHT22;5615;49.304;10.576;2023-05-29T00:54:56;12.90;98.90
11122;DHT22;5615;49.304;10.576;2023-05-29T00:57:27;12.80;99.60
11122;DHT22;5615;49.304;10.576;2023-05-29T00:59:54;12.70;99.90
11122;DHT22;5615;49.304;10.576;2023-05-29T01:02:21;12.70;99.90
11122;DHT22;5615;49.304;10.576;2023-05-29T01:04:49;12.70;99.90
11122;DHT22;5615;49.304;10.576;2023-05-29T01:07:19;12.50;99.90
11122;DHT22;5615;49.304;10.576;2023-05-29T01:09:46;12.40;99.90
11122;DHT22;5615;49.304;10.576;2023-05-29T01:12:21;12.30;99.90
11122;DHT22;5615;49.304;10.576;2023-05-29T01:15:05;12.50;99.90
11122;DHT22;5615;49.304;10.576;2023-05-29T01:17:42;12.30;99.90
11122;DHT22;5615;49.304;10.576;2023-05-29T01:20:23;12.30;99.90
11122;DHT22;5615;49.304;10.576;2023-05-29T01:23:13;12.10;99.90
11122;DHT22;5615;49.304;10.576;2023-05-29T01:25:58;12.10;99.90
11122;DHT22;5615;49.304;10.576;2023-05-29T01:28:28;12.00;99.90
11122;DHT22;5615;49.304;10.576;2023-05-29T01:30:57;12.20;99.90
11122;DHT22;5615;49.304;10.576;2023-05-29T01:33:26;12.20;99.90
11122;DHT22;5615;49.304;10.576;2023-05-29T01:35:52;12.00;99.90
11122;DHT22;5615;49.304;10.576;2023-05-29T01:38:19;11.90;99.90
11122;DHT22;5615;49.304;10.576;2023-05-29T01:40:46;11.70;99.90
11122;DHT22;5615;49.304;10.576;2023-05-29T01:43:14;11.70;99.90
11122;DHT22;5615;49.304;10.576;2023-05-29T01:45:42;11.60;99.90
11122;DHT22;5615;49.304;10.576;2023-05-29T01:48:10;11.70;99.90
11122;DHT22;5615;49.304;10.576;2023-05-29T01:50:36;11.70;99.90
11122;DHT22;5615;49.304;10.576;2023-05-29T01:53:04;11.70;99.90
11122;DHT22;5615;49.304;10.576;2023-05-29T01:55:30;11.90;99.90
11122;DHT22;5615;49.304;10.576;2023-05-29T01:57:57;11.90;99.90
11122;DHT22;5615;49.304;10.576;2023-05-29T02:00:25;11.70;99.90
11122;DHT22;5615;49.304;10.576;2023-05-29T02:02:53;11.40;99.90
11122;DHT22;5615;49.304;10.576;2023-05-29T02:05:19;11.30;99.90
11122;DHT22;5615;49.304;10.576;2023-05-29T02:07:47;11.30;99.90
11122;DHT22;5615;49.304;10.576;2023-05-29T02:10:13;11.10;99.90
11122;DHT22;5615;49.304;10.576;2023-05-29T02:12:40;11.20;99.90
11122;DHT22;5615;49.304;10.576;2023-05-29T02:15:08;11.10;99.90
11122;DHT22;5615;49.304;10.576;2023-05-29T02:17:34;11.10;99.90
11122;DHT22;5615;49.304;10.576;2023-05-29T02:20:03;10.90;99.90
11122;DHT22;5615;49.304;10.576;2023-05-29T02:22:31;10.90;99.90
11122;DHT22;5615;49.304;10.576;2023-05-29T02:24:58;11.10;99.90
11122;DHT22;5615;49.304;10.576;2023-05-29T02:27:24;11.20;99.90
11122;DHT22;5615;49.304;10.576;2023-05-29T02:29:51;11.20;99.90
11122;DHT22;5615;49.304;10.576;2023-05-29T02:32:18;11.00;99.90
11122;DHT22;5615;49.304;10.576;2023-05-29T02:34:44;10.90;99.90
11122;DHT22;5615;49.304;10.576;2023-05-29T02:37:13;10.70;99.90
11122;DHT22;5615;49.304;10.576;2023-05-29T02:39:39;10.60;99.90
11122;DHT22;5615;49.304;10.576;2023-05-29T02:42:06;10.60;99.90
11122;DHT22;5615;49.304;10.576;2023-05-29T02:44:33;10.70;99.90
11122;DHT22;5615;49.304;10.576;2023-05-29T02:46:59;10.80;99.90
11122;DHT22;5615;49.304;10.576;2023-05-29T02:49:26;10.90;99.90
11122;DHT22;5615;49.304;10.576;2023-05-29T02:51:53;10.80;99.90
11122;DHT22;5615;49.304;10.576;2023-05-29T02:54:23;10.80;99.90
11122;DHT22;5615;49.304;10.576;2023-05-29T02:56:49;10.80;99.90
11122;DHT22;5615;49.304;10.576;2023-05-29T02:59:16;10.80;99.90
11122;DHT22;5615;49.304;10.576;2023-05-29T03:01:43;10.50;99.90
11122;DHT22;5615;49.304;10.576;2023-05-29T03:04:10;10.30;99.90
11122;DHT22;5615;49.304;10.576;2023-05-29T03:06:37;10.20;99.90
11122;DHT22;5615;49.304;10.576;2023-05-29T03:09:04;10.10;99.90
11122;DHT22;5615;49.304;10.576;2023-05-29T03:11:33;10.20;99.90
11122;DHT22;5615;49.304;10.576;2023-05-29T03:14:01;10.10;99.90
11122;DHT22;5615;49.304;10.576;2023-05-29T03:16:28;10.00;99.90
11122;DHT22;5615;49.304;10.576;2023-05-29T03:18:54;9.90;99.90
11122;DHT22;5615;49.304;10.576;2023-05-29T03:21:21;9.70;99.90
11122;DHT22;5615;49.304;10.576;2023-05-29T03:23:48;9.60;99.90
11122;DHT22;5615;49.304;10.576;2023-05-29T03:26:15;9.60;99.90
11122;DHT22;5615;49.304;10.576;2023-05-29T03:28:43;9.60;99.90
11122;DHT22;5615;49.304;10.576;2023-05-29T03:31:10;9.60;99.90
11122;DHT22;5615;49.304;10.576;2023-05-29T03:33:36;9.50;99.90
11122;DHT22;5615;49.304;10.576;2023-05-29T03:36:03;9.50;99.90
11122;DHT22;5615;49.304;10.576;2023-05-29T03:38:30;9.50;99.90
11122;DHT22;5615;49.304;10.576;2023-05-29T03:40:57;9.50;99.90
11122;DHT22;5615;49.304;10.576;2023-05-29T03:43:23;9.40;99.90
11122;DHT22;5615;49.304;10.576;2023-05-29T03:45:51;9.40;99.90
11122;DHT22;5615;49.304;10.576;2023-05-29T03:48:18;9.40;99.90
11122;DHT22;5615;49.304;10.576;2023-05-29T03:50:45;9.40;99.90
11122;DHT22;5615;49.304;10.576;2023-05-29T03:53:12;9.50;99.90
11122;DHT22;5615;49.304;10.576;2023-05-29T03:55:39;9.50;99.90
11122;DHT22;5615;49.304;10.576;2023-05-29T03:58:06;9.50;99.90
11122;DHT22;5615;49.304;10.576;2023-05-29T04:00:32;9.70;99.90
11122;DHT22;5615;49.304;10.576;2023-05-29T04:03:00;9.60;99.90
11122;DHT22;5615;49.304;10.576;2023-05-29T04:05:27;9.70;99.90
11122;DHT22;5615;49.304;10.576;2023-05-29T04:07:55;9.70;99.90
11122;DHT22;5615;49.304;10.576;2023-05-29T04:10:22;9.90;99.90
11122;DHT22;5615;49.304;10.576;2023-05-29T04:12:49;9.90;99.90
11122;DHT22;5615;49.304;10.576;2023-05-29T04:15:15;9.90;99.90
11122;DHT22;5615;49.304;10.576;2023-05-29T04:17:42;9.90;99.90
11122;DHT22;5615;49.304;10.576;2023-05-29T04:20:11;9.90;99.90
11122;DHT22;5615;49.304;10.576;2023-05-29T04:22:38;9.80;99.90
11122;DHT22;5615;49.304;10.576;2023-05-29T04:25:05;10.00;99.90
11122;DHT22;5615;49.304;10.576;2023-05-29T04:27:31;10.00;99.90
11122;DHT22;5615;49.304;10.576;2023-05-29T04:30:03;10.20;99.90
11122;DHT22;5615;49.304;10.576;2023-05-29T04:32:29;10.30;99.90
11122;DHT22;5615;49.304;10.576;2023-05-29T04:34:58;10.40;99.90
11122;DHT22;5615;49.304;10.576;2023-05-29T04:37:29;10.50;99.90
11122;DHT22;5615;49.304;10.576;2023-05-29T04:39:57;10.60;99.90
11122;DHT22;5615;49.304;10.576;2023-05-29T04:42:24;10.80;99.90
11122;DHT22;5615;49.304;10.576;2023-05-29T04:44:51;10.80;99.90
11122;DHT22;5615;49.304;10.576;2023-05-29T04:47:18;10.80;99.90
11122;DHT22;5615;49.304;10.576;2023-05-29T04:49:45;10.90;99.90
11122;DHT22;5615;49.304;10.576;2023-05-29T04:52:14;10.80;99.90
11122;DHT22;5615;49.304;10.576;2023-05-29T04:54:42;10.90;99.90
11122;DHT22;5615;49.304;10.576;2023-05-29T04:57:08;10.90;99.90
11122;DHT22;5615;49.304;10.576;2023-05-29T04:59:35;10.90;99.90
11122;DHT22;5615;49.304;10.576;2023-05-29T05:02:02;11.00;99.90
11122;DHT22;5615;49.304;10.576;2023-05-29T05:04:29;11.20;99.90
11122;DHT22;5615;49.304;10.576;2023-05-29T05:06:55;11.30;99.90
11122;DHT22;5615;49.304;10.576;2023-05-29T05:09:22;11.50;99.90
11122;DHT22;5615;49.304;10.576;2023-05-29T05:11:50;11.70;99.90
11122;DHT22;5615;49.304;10.576;2023-05-29T05:14:17;11.90;99.90
11122;DHT22;5615;49.304;10.576;2023-05-29T05:16:43;12.20;99.90
11122;DHT22;5615;49.304;10.576;2023-05-29T05:19:10;12.40;99.90
11122;DHT22;5615;49.304;10.576;2023-05-29T05:21:37;12.60;99.90
11122;DHT22;5615;49.304;10.576;2023-05-29T05:24:04;12.90;99.90
11122;DHT22;5615;49.304;10.576;2023-05-29T05:26:30;13.10;99.90
11122;DHT22;5615;49.304;10.576;2023-05-29T05:28:58;13.40;99.90
11122;DHT22;5615;49.304;10.576;2023-05-29T05:31:25;13.60;99.90
11122;DHT22;5615;49.304;10.576;2023-05-29T05:33:52;13.80;99.90
11122;DHT22;5615;49.304;10.576;2023-05-29T05:36:18;13.90;99.90
11122;DHT22;5615;49.304;10.576;2023-05-29T05:38:45;14.10;99.90
11122;DHT22;5615;49.304;10.576;2023-05-29T05:41:12;14.30;99.90
11122;DHT22;5615;49.304;10.576;2023-05-29T05:43:38;14.40;99.90
11122;DHT22;5615;49.304;10.576;2023-05-29T05:46:06;14.50;99.90
11122;DHT22;5615;49.304;10.576;2023-05-29T05:48:33;14.70;99.90
11122;DHT22;5615;49.304;10.576;2023-05-29T05:51:00;14.80;99.90
11122;DHT22;5615;49.304;10.576;2023-05-29T05:53:26;14.90;99.90
11122;DHT22;5615;49.304;10.576;2023-05-29T05:55:53;15.00;99.90
11122;DHT22;5615;49.304;10.576;2023-05-29T05:58:19;15.10;99.90
11122;DHT22;5615;49.304;10.576;2023-05-29T06:00:46;15.30;99.90
11122;DHT22;5615;49.304;10.576;2023-05-29T06:03:15;15.40;99.90
11122;DHT22;5615;49.304;10.576;2023-05-29T06:05:41;15.40;99.90
11122;DHT22;5615;49.304;10.576;2023-05-29T06:08:08;15.50;99.90
11122;DHT22;5615;49.304;10.576;2023-05-29T06:10:35;15.60;99.90
11122;DHT22;5615;49.304;10.576;2023-05-29T06:13:01;15.70;99.90
11122;DHT22;5615;49.304;10.576;2023-05-29T06:15:28;15.70;99.90
11122;DHT22;5615;49.304;10.576;2023-05-29T06:17:54;15.80;99.90
11122;DHT22;5615;49.304;10.576;2023-05-29T06:20:22;15.80;99.90
11122;DHT22;5615;49.304;10.576;2023-05-29T06:22:49;15.90;99.90
11122;DHT22;5615;49.304;10.576;2023-05-29T06:25:16;15.90;99.90
11122;DHT22;5615;49.304;10.576;2023-05-29T06:27:43;16.10;99.90
11122;DHT22;5615;49.304;10.576;2023-05-29T06:30:11;16.20;99.90
11122;DHT22;5615;49.304;10.576;2023-05-29T06:32:38;16.30;99.90
11122;DHT22;5615;49.304;10.576;2023-05-29T06:35:05;16.40;99.90
11122;DHT22;5615;49.304;10.576;2023-05-29T06:37:33;16.40;99.90
11122;DHT22;5615;49.304;10.576;2023-05-29T06:40:00;16.50;99.90
11122;DHT22;5615;49.304;10.576;2023-05-29T06:42:26;16.50;99.90
11122;DHT22;5615;49.304;10.576;2023-05-29T06:44:53;16.60;99.90
11122;DHT22;5615;49.304;10.576;2023-05-29T06:47:19;16.80;99.90
11122;DHT22;5615;49.304;10.576;2023-05-29T06:49:46;16.80;99.90
11122;DHT22;5615;49.304;10.576;2023-05-29T06:52:13;16.80;99.60
11122;DHT22;5615;49.304;10.576;2023-05-29T06:54:41;16.90;99.40
11122;DHT22;5615;49.304;10.576;2023-05-29T06:57:08;17.10;99.10
11122;DHT22;5615;49.304;10.576;2023-05-29T06:59:34;17.20;98.30
11122;DHT22;5615;49.304;10.576;2023-05-29T07:02:01;17.30;98.60
11122;DHT22;5615;49.304;10.576;2023-05-29T07:04:27;17.40;98.10
11122;DHT22;5615;49.304;10.576;2023-05-29T07:06:54;17.60;97.60
11122;DHT22;5615;49.304;10.576;2023-05-29T07:09:21;17.70;95.40
11122;DHT22;5615;49.304;10.576;2023-05-29T07:11:48;17.60;95.30
11122;DHT22;5615;49.304;10.576;2023-05-29T07:14:15;17.80;96.20
11122;DHT22;5615;49.304;10.576;2023-05-29T07:16:42;17.90;94.40
11122;DHT22;5615;49.304;10.576;2023-05-29T07:19:09;18.00;93.10
11122;DHT22;5615;49.304;10.576;2023-05-29T07:21:36;18.10;92.00
11122;DHT22;5615;49.304;10.576;2023-05-29T07:24:03;18.20;91.60
11122;DHT22;5615;49.304;10.576;2023-05-29T07:26:30;18.30;91.20
11122;DHT22;5615;49.304;10.576;2023-05-29T07:28:58;18.30;91.20
11122;DHT22;5615;49.304;10.576;2023-05-29T07:31:25;18.40;91.30
11122;DHT22;5615;49.304;10.576;2023-05-29T07:33:51;18.50;90.10
11122;DHT22;5615;49.304;10.576;2023-05-29T07:36:18;18.50;90.30
11122;DHT22;5615;49.304;10.576;2023-05-29T07:38:45;18.60;89.40
11122;DHT22;5615;49.304;10.576;2023-05-29T07:41:12;18.80;87.70
11122;DHT22;5615;49.304;10.576;2023-05-29T07:43:38;18.80;85.70
11122;DHT22;5615;49.304;10.576;2023-05-29T07:46:06;19.00;87.20
11122;DHT22;5615;49.304;10.576;2023-05-29T07:48:33;19.20;85.80
11122;DHT22;5615;49.304;10.576;2023-05-29T07:51:00;19.40;84.10
11122;DHT22;5615;49.304;10.576;2023-05-29T07:53:26;19.60;83.90
11122;DHT22;5615;49.304;10.576;2023-05-29T07:55:53;19.70;83.20
11122;DHT22;5615;49.304;10.576;2023-05-29T07:58:20;19.90;83.20
11122;DHT22;5615;49.304;10.576;2023-05-29T08:00:47;20.10;80.50
11122;DHT22;5615;49.304;10.576;2023-05-29T08:03:15;20.20;78.30
11122;DHT22;5615;49.304;10.576;2023-05-29T08:05:42;20.30;76.70
11122;DHT22;5615;49.304;10.576;2023-05-29T08:08:09;20.60;77.40
11122;DHT22;5615;49.304;10.576;2023-05-29T08:10:38;20.70;73.90
11122;DHT22;5615;49.304;10.576;2023-05-29T08:13:04;20.90;73.30
11122;DHT22;5615;49.304;10.576;2023-05-29T08:15:31;21.20;69.10
11122;DHT22;5615;49.304;10.576;2023-05-29T08:17:58;21.20;64.70
11122;DHT22;5615;49.304;10.576;2023-05-29T08:20:27;21.20;65.20
11122;DHT22;5615;49.304;10.576;2023-05-29T08:22:53;21.50;64.00
11122;DHT22;5615;49.304;10.576;2023-05-29T08:25:20;21.60;60.70
11122;DHT22;5615;49.304;10.576;2023-05-29T08:27:47;21.80;57.40
11122;DHT22;5615;49.304;10.576;2023-05-29T08:30:14;21.80;55.90
11122;DHT22;5615;49.304;10.576;2023-05-29T08:32:41;21.90;53.40
11122;DHT22;5615;49.304;10.576;2023-05-29T08:35:08;22.10;50.40
11122;DHT22;5615;49.304;10.576;2023-05-29T08:37:36;22.10;49.50
11122;DHT22;5615;49.304;10.576;2023-05-29T08:40:03;22.20;50.00
11122;DHT22;5615;49.304;10.576;2023-05-29T08:42:38;22.30;47.90
11122;DHT22;5615;49.304;10.576;2023-05-29T08:45:07;22.30;46.10
11122;DHT22;5615;49.304;10.576;2023-05-29T08:47:38;22.50;45.70
11122;DHT22;5615;49.304;10.576;2023-05-29T08:50:07;22.60;44.90
11122;DHT22;5615;49.304;10.576;2023-05-29T08:52:36;22.70;45.40
11122;DHT22;5615;49.304;10.576;2023-05-29T08:55:04;22.90;44.40
11122;DHT22;5615;49.304;10.576;2023-05-29T08:57:32;23.00;43.60
11122;DHT22;5615;49.304;10.576;2023-05-29T08:59:59;23.10;42.30
11122;DHT22;5615;49.304;10.576;2023-05-29T09:02:26;23.20;39.50
11122;DHT22;5615;49.304;10.576;2023-05-29T09:04:54;23.50;39.80
11122;DHT22;5615;49.304;10.576;2023-05-29T09:07:22;23.50;40.00
11122;DHT22;5615;49.304;10.576;2023-05-29T09:09:52;23.70;40.20
11122;DHT22;5615;49.304;10.576;2023-05-29T09:12:19;23.80;41.10
11122;DHT22;5615;49.304;10.576;2023-05-29T09:14:47;24.00;40.60
11122;DHT22;5615;49.304;10.576;2023-05-29T09:17:13;24.10;38.00
11122;DHT22;5615;49.304;10.576;2023-05-29T09:19:41;24.30;37.50
11122;DHT22;5615;49.304;10.576;2023-05-29T09:22:09;24.50;38.00
11122;DHT22;5615;49.304;10.576;2023-05-29T09:24:39;24.60;38.10
11122;DHT22;5615;49.304;10.576;2023-05-29T09:27:08;24.80;38.50
11122;DHT22;5615;49.304;10.576;2023-05-29T09:29:38;25.00;37.20
11122;DHT22;5615;49.304;10.576;2023-05-29T09:32:07;25.20;36.30
11122;DHT22;5615;49.304;10.576;2023-05-29T09:34:34;25.20;35.00
11122;DHT22;5615;49.304;10.576;2023-05-29T09:37:01;25.10;34.00
11122;DHT22;5615;49.304;10.576;2023-05-29T09:39:33;25.10;34.60
11122;DHT22;5615;49.304;10.576;2023-05-29T09:42:00;25.50;33.60
11122;DHT22;5615;49.304;10.576;2023-05-29T09:44:28;25.50;34.90
11122;DHT22;5615;49.304;10.576;2023-05-29T09:46:58;25.80;35.90
11122;DHT22;5615;49.304;10.576;2023-05-29T09:49:26;26.00;33.50
11122;DHT22;5615;49.304;10.576;2023-05-29T09:51:53;26.20;32.80
11122;DHT22;5615;49.304;10.576;2023-05-29T09:54:20;26.50;34.20
11122;DHT22;5615;49.304;10.576;2023-05-29T09:56:47;26.70;32.90
11122;DHT22;5615;49.304;10.576;2023-05-29T09:59:15;27.00;32.50
11122;DHT22;5615;49.304;10.576;2023-05-29T10:01:44;26.90;32.60
11122;DHT22;5615;49.304;10.576;2023-05-29T10:04:11;27.10;32.30
11122;DHT22;5615;49.304;10.576;2023-05-29T10:06:43;27.30;31.90
11122;DHT22;5615;49.304;10.576;2023-05-29T10:09:12;27.30;32.20
11122;DHT22;5615;49.304;10.576;2023-05-29T10:11:43;28.00;31.30
11122;DHT22;5615;49.304;10.576;2023-05-29T10:14:14;28.30;31.60
11122;DHT22;5615;49.304;10.576;2023-05-29T10:16:43;28.50;29.70
11122;DHT22;5615;49.304;10.576;2023-05-29T10:19:13;28.50;29.60
11122;DHT22;5615;49.304;10.576;2023-05-29T10:21:41;28.60;29.00
11122;DHT22;5615;49.304;10.576;2023-05-29T10:24:11;28.70;28.70
11122;DHT22;5615;49.304;10.576;2023-05-29T10:26:40;28.20;28.70
11122;DHT22;5615;49.304;10.576;2023-05-29T10:29:12;28.30;28.30
11122;DHT22;5615;49.304;10.576;2023-05-29T10:31:53;28.90;27.00
11122;DHT22;5615;49.304;10.576;2023-05-29T10:34:31;29.00;26.20
11122;DHT22;5615;49.304;10.576;2023-05-29T10:37:06;29.00;25.60
11122;DHT22;5615;49.304;10.576;2023-05-29T10:39:35;29.50;25.30
11122;DHT22;5615;49.304;10.576;2023-05-29T10:42:01;29.10;23.90
11122;DHT22;5615;49.304;10.576;2023-05-29T10:44:39;28.90;24.20
11122;DHT22;5615;49.304;10.576;2023-05-29T10:47:09;28.50;23.60
11122;DHT22;5615;49.304;10.576;2023-05-29T10:49:39;28.30;23.90
11122;DHT22;5615;49.304;10.576;2023-05-29T10:52:06;29.70;22.90
11122;DHT22;5615;49.304;10.576;2023-05-29T10:54:51;30.80;22.30
11122;DHT22;5615;49.304;10.576;2023-05-29T10:57:21;31.30;21.90
11122;DHT22;5615;49.304;10.576;2023-05-29T10:59:48;31.20;20.70
11122;DHT22;5615;49.304;10.576;2023-05-29T11:02:18;31.50;21.60
11122;DHT22;5615;49.304;10.576;2023-05-29T11:05:04;29.80;20.80
11122;DHT22;5615;49.304;10.576;2023-05-29T11:07:34;29.30;23.50
11122;DHT22;5615;49.304;10.576;2023-05-29T11:10:11;30.40;22.10
11122;DHT22;5615;49.304;10.576;2023-05-29T11:12:57;31.70;20.20
11122;DHT22;5615;49.304;10.576;2023-05-29T11:15:24;32.50;19.70
11122;DHT22;5615;49.304;10.576;2023-05-29T11:17:51;33.40;18.50
11122;DHT22;5615;49.304;10.576;2023-05-29T11:20:28;31.90;18.70
11122;DHT22;5615;49.304;10.576;2023-05-29T11:23:04;32.70;18.20
11122;DHT22;5615;49.304;10.576;2023-05-29T11:25:35;33.00;17.80
11122;DHT22;5615;49.304;10.576;2023-05-29T11:28:07;34.30;16.80
11122;DHT22;5615;49.304;10.576;2023-05-29T11:30:42;35.10;15.30
11122;DHT22;5615;49.304;10.576;2023-05-29T11:33:23;35.40;14.90
11122;DHT22;5615;49.304;10.576;2023-05-29T11:35:55;35.20;15.30
11122;DHT22;5615;49.304;10.576;2023-05-29T11:38:23;33.80;16.20
11122;DHT22;5615;49.304;10.576;2023-05-29T11:40:49;35.10;16.30
11122;DHT22;5615;49.304;10.576;2023-05-29T11:43:16;35.80;15.70
11122;DHT22;5615;49.304;10.576;2023-05-29T11:45:43;35.60;15.10
11122;DHT22;5615;49.304;10.576;2023-05-29T11:48:09;35.00;15.20
11122;DHT22;5615;49.304;10.576;2023-05-29T11:50:36;35.70;14.50
11122;DHT22;5615;49.304;10.576;2023-05-29T11:53:06;36.20;14.10
11122;DHT22;5615;49.304;10.576;2023-05-29T11:55:33;36.10;14.00
11122;DHT22;5615;49.304;10.576;2023-05-29T11:58:00;37.00;13.60
11122;DHT22;5615;49.304;10.576;2023-05-29T12:00:31;35.50;14.10
11122;DHT22;5615;49.304;10.576;2023-05-29T12:02:59;36.00;13.90
11122;DHT22;5615;49.304;10.576;2023-05-29T12:05:29;36.70;13.40
11122;DHT22;5615;49.304;10.576;2023-05-29T12:07:56;37.20;13.90
11122;DHT22;5615;49.304;10.576;2023-05-29T12:10:24;37.60;12.70
11122;DHT22;5615;49.304;10.576;2023-05-29T12:12:52;37.80;12.50
11122;DHT22;5615;49.304;10.576;2023-05-29T12:15:19;38.10;12.90
11122;DHT22;5615;49.304;10.576;2023-05-29T12:17:48;38.30;12.20
11122;DHT22;5615;49.304;10.576;2023-05-29T12:20:15;38.00;11.90
11122;DHT22;5615;49.304;10.576;2023-05-29T12:22:43;37.80;11.20
11122;DHT22;5615;49.304;10.576;2023-05-29T12:25:11;38.30;11.10
11122;DHT22;5615;49.304;10.576;2023-05-29T12:27:41;38.60;11.00
11122;DHT22;5615;49.304;10.576;2023-05-29T12:30:09;38.30;11.10
11122;DHT22;5615;49.304;10.576;2023-05-29T12:32:37;37.00;11.20
11122;DHT22;5615;49.304;10.576;2023-05-29T12:35:12;33.90;12.70
11122;DHT22;5615;49.304;10.576;2023-05-29T12:37:44;34.60;12.50
11122;DHT22;5615;49.304;10.576;2023-05-29T12:40:18;34.00;13.40
11122;DHT22;5615;49.304;10.576;2023-05-29T12:42:47;33.30;13.60
11122;DHT22;5615;49.304;10.576;2023-05-29T12:45:14;33.50;13.50
11122;DHT22;5615;49.304;10.576;2023-05-29T12:47:51;33.50;14.60
11122;DHT22;5615;49.304;10.576;2023-05-29T12:50:25;35.80;12.60
11122;DHT22;5615;49.304;10.576;2023-05-29T12:52:54;37.50;11.70
11122;DHT22;5615;49.304;10.576;2023-05-29T12:55:21;38.80;11.20
11122;DHT22;5615;49.304;10.576;2023-05-29T12:57:49;37.70;10.60
11122;DHT22;5615;49.304;10.576;2023-05-29T13:00:16;38.40;10.70
11122;DHT22;5615;49.304;10.576;2023-05-29T13:02:44;39.20;10.40
11122;DHT22;5615;49.304;10.576;2023-05-29T13:05:10;39.40;9.30
11122;DHT22;5615;49.304;10.576;2023-05-29T13:07:37;37.90;8.70
11122;DHT22;5615;49.304;10.576;2023-05-29T13:10:05;37.60;10.40
11122;DHT22;5615;49.304;10.576;2023-05-29T13:12:31;37.10;9.40
11122;DHT22;5615;49.304;10.576;2023-05-29T13:14:59;37.60;9.00
11122;DHT22;5615;49.304;10.576;2023-05-29T13:17:26;39.00;9.00
11122;DHT22;5615;49.304;10.576;2023-05-29T13:19:53;39.70;9.20
11122;DHT22;5615;49.304;10.576;2023-05-29T13:22:19;39.40;8.30
11122;DHT22;5615;49.304;10.576;2023-05-29T13:24:46;40.10;8.70
11122;DHT22;5615;49.304;10.576;2023-05-29T13:27:13;40.50;8.20
11122;DHT22;5615;49.304;10.576;2023-05-29T13:29:41;40.80;8.50
11122;DHT22;5615;49.304;10.576;2023-05-29T13:32:09;40.80;8.20
11122;DHT22;5615;49.304;10.576;2023-05-29T13:34:36;40.70;7.70
11122;DHT22;5615;49.304;10.576;2023-05-29T13:37:03;41.00;7.40
11122;DHT22;5615;49.304;10.576;2023-05-29T13:39:29;39.90;8.10
11122;DHT22;5615;49.304;10.576;2023-05-29T13:41:56;41.10;7.30
11122;DHT22;5615;49.304;10.576;2023-05-29T13:44:23;41.10;7.00
11122;DHT22;5615;49.304;10.576;2023-05-29T13:46:50;40.70;7.10
11122;DHT22;5615;49.304;10.576;2023-05-29T13:49:18;41.20;6.90
11122;DHT22;5615;49.304;10.576;2023-05-29T13:51:45;41.50;6.60
11122;DHT22;5615;49.304;10.576;2023-05-29T13:54:15;41.70;5.90
11122;DHT22;5615;49.304;10.576;2023-05-29T13:56:42;41.30;5.70
11122;DHT22;5615;49.304;10.576;2023-05-29T13:59:08;41.80;6.10
11122;DHT22;5615;49.304;10.576;2023-05-29T14:01:35;42.30;6.30
11122;DHT22;5615;49.304;10.576;2023-05-29T14:04:01;41.60;6.20
11122;DHT22;5615;49.304;10.576;2023-05-29T14:06:29;41.50;6.20
11122;DHT22;5615;49.304;10.576;2023-05-29T14:08:57;41.50;5.90
11122;DHT22;5615;49.304;10.576;2023-05-29T14:11:24;41.60;6.00
11122;DHT22;5615;49.304;10.576;2023-05-29T14:13:52;41.70;5.40
11122;DHT22;5615;49.304;10.576;2023-05-29T14:16:18;42.10;5.10
11122;DHT22;5615;49.304;10.576;2023-05-29T14:18:45;42.40;4.90
11122;DHT22;5615;49.304;10.576;2023-05-29T14:21:14;42.60;5.00
11122;DHT22;5615;49.304;10.576;2023-05-29T14:23:41;42.30;5.20
11122;DHT22;5615;49.304;10.576;2023-05-29T14:26:08;42.70;5.50
11122;DHT22;5615;49.304;10.576;2023-05-29T14:28:35;42.50;5.40
11122;DHT22;5615;49.304;10.576;2023-05-29T14:31:02;42.50;5.40
11122;DHT22;5615;49.304;10.576;2023-05-29T14:33:29;43.00;5.70
11122;DHT22;5615;49.304;10.576;2023-05-29T14:35:55;42.60;5.30
11122;DHT22;5615;49.304;10.576;2023-05-29T14:38:22;42.30;5.50
11122;DHT22;5615;49.304;10.576;2023-05-29T14:40:50;42.20;5.00
11122;DHT22;5615;49.304;10.576;2023-05-29T14:43:17;42.80;5.30
11122;DHT22;5615;49.304;10.576;2023-05-29T14:45:43;41.30;5.00
11122;DHT22;5615;49.304;10.576;2023-05-29T14:48:10;41.10;5.50
11122;DHT22;5615;49.304;10.576;2023-05-29T14:50:37;41.70;5.40
11122;DHT22;5615;49.304;10.576;2023-05-29T14:53:03;40.00;5.70
11122;DHT22;5615;49.304;10.576;2023-05-29T14:55:30;38.70;5.70
11122;DHT22;5615;49.304;10.576;2023-05-29T14:58:04;40.10;6.40
11122;DHT22;5615;49.304;10.576;2023-05-29T15:00:31;41.40;6.00
11122;DHT22;5615;49.304;10.576;2023-05-29T15:02:58;40.40;5.00
11122;DHT22;5615;49.304;10.576;2023-05-29T15:05:25;41.50;4.90
11122;DHT22;5615;49.304;10.576;2023-05-29T15:07:52;42.10;4.50
11122;DHT22;5615;49.304;10.576;2023-05-29T15:10:22;42.00;4.30
11122;DHT22;5615;49.304;10.576;2023-05-29T15:12:49;42.30;4.30
11122;DHT22;5615;49.304;10.576;2023-05-29T15:15:23;42.50;4.60
11122;DHT22;5615;49.304;10.576;2023-05-29T15:17:50;42.10;4.20
11122;DHT22;5615;49.304;10.576;2023-05-29T15:20:19;41.20;5.30
11122;DHT22;5615;49.304;10.576;2023-05-29T15:22:45;42.10;4.80
11122;DHT22;5615;49.304;10.576;2023-05-29T15:25:12;40.80;5.40
11122;DHT22;5615;49.304;10.576;2023-05-29T15:27:39;41.50;5.90
11122;DHT22;5615;49.304;10.576;2023-05-29T15:30:09;41.30;5.70
11122;DHT22;5615;49.304;10.576;2023-05-29T15:32:38;39.30;5.20
11122;DHT22;5615;49.304;10.576;2023-05-29T15:35:06;40.00;6.40
11122;DHT22;5615;49.304;10.576;2023-05-29T15:37:33;40.50;6.00
11122;DHT22;5615;49.304;10.576;2023-05-29T15:40:00;40.70;5.80